Time;durP1;ratioP1;P1;durP2;ratioP2;P2;SDS_P1;SDS_P2;PMS_P1;PMS_P2;Temp;Humidity;BMP_temperature;BMP_pressure;BME280_temperature;BME280_humidity;BME280_pressure;Samples;Min_cycle;Max_cycle;Signal;HPM_P1;HPM_P2
2023/06/10 00:00:41;;;;;;;11.07;4.57;;;;;;;;;;4959150;28;97620;-79
2023/06/10 00:03:08;;;;;;;5.30;4.13;;;;;;;;;;4949015;28;98144;-79
2023/06/10 00:05:35;;;;;;;9.30;4.47;;;;;;;;;;4960154;28;98477;-79
2023/06/10 00:08:07;;;;;;;10.60;4.13;;;;;;;;;;4958999;28;98988;-79
2023/06/10 00:10:38;;;;;;;8.77;4.40;;;;;;;;;;4957073;28;101211;-79
2023/06/10 00:13:07;;;;;;;6.25;3.80;;;;;;;;;;4947891;28;98456;-79
2023/06/10 00:15:35;;;;;;;8.02;4.55;;;;;;;;;;4962639;28;98911;-79
2023/06/10 00:18:03;;;;;;;7.15;4.60;;;;;;;;;;4952111;28;100335;-79
2023/06/10 00:20:30;;;;;;;11.15;4.38;;;;;;;;;;4946068;28;98021;-79
2023/06/10 00:22:59;;;;;;;7.47;4.43;;;;;;;;;;4947640;28;99128;-79
2023/06/10 00:25:25;;;;;;;9.02;4.15;;;;;;;;;;4963267;28;98772;-79
2023/06/10 00:27:52;;;;;;;6.40;3.75;;;;;;;;;;4954916;28;98140;-79
2023/06/10 00:30:18;;;;;;;4.35;3.53;;;;;;;;;;4959408;28;98433;-79
2023/06/10 00:32:45;;;;;;;12.43;4.45;;;;;;;;;;4945316;28;99091;-79
2023/06/10 00:35:12;;;;;;;5.85;4.30;;;;;;;;;;4950846;28;98406;-79
2023/06/10 00:37:38;;;;;;;6.40;4.03;;;;;;;;;;4956959;28;100734;-79
2023/06/10 00:40:05;;;;;;;7.85;4.20;;;;;;;;;;4956312;28;98536;-79
2023/06/10 00:42:32;;;;;;;4.68;4.15;;;;;;;;;;4964031;28;100667;-79
2023/06/10 00:44:59;;;;;;;8.15;4.57;;;;;;;;;;4954683;28;101291;-79
2023/06/10 00:47:26;;;;;;;10.68;5.40;;;;;;;;;;4950502;28;98525;-79
2023/06/10 00:49:53;;;;;;;9.13;4.88;;;;;;;;;;4951538;28;100004;-79
2023/06/10 00:52:21;;;;;;;8.60;4.93;;;;;;;;;;4964542;28;98467;-81
2023/06/10 00:54:47;;;;;;;6.85;4.50;;;;;;;;;;4950260;28;100586;-79
2023/06/10 00:57:14;;;;;;;13.50;4.95;;;;;;;;;;4961181;28;101409;-79
2023/06/10 00:59:43;;;;;;;7.40;4.35;;;;;;;;;;4962037;28;98345;-79
2023/06/10 01:02:09;;;;;;;9.20;4.90;;;;;;;;;;4962369;28;98389;-79
2023/06/10 01:04:37;;;;;;;8.60;4.78;;;;;;;;;;4960774;28;102098;-79
2023/06/10 01:07:14;;;;;;;9.38;3.92;;;;;;;;;;4960637;28;98560;-79
2023/06/10 01:09:45;;;;;;;4.63;4.18;;;;;;;;;;4963685;28;100515;-79
2023/06/10 01:12:30;;;;;;;11.10;4.53;;;;;;;;;;4963088;28;98340;-79
2023/06/10 01:14:57;;;;;;;9.15;4.10;;;;;;;;;;4964244;28;97895;-79
2023/06/10 01:17:26;;;;;;;9.13;4.22;;;;;;;;;;4963967;28;98536;-79
2023/06/10 01:19:55;;;;;;;9.80;4.40;;;;;;;;;;4962313;28;98513;-79
2023/06/10 01:22:28;;;;;;;6.07;4.25;;;;;;;;;;4961667;28;99195;-79
2023/06/10 01:24:58;;;;;;;7.85;4.60;;;;;;;;;;4961849;28;98444;-79
2023/06/10 01:27:29;;;;;;;8.85;4.35;;;;;;;;;;4945275;28;98476;-79
2023/06/10 01:29:59;;;;;;;10.55;4.07;;;;;;;;;;4962129;28;99654;-79
2023/06/10 01:32:28;;;;;;;11.05;4.82;;;;;;;;;;4964693;28;98216;-78
2023/06/10 01:34:56;;;;;;;7.65;4.63;;;;;;;;;;4961006;28;99155;-79
2023/06/10 01:37:24;;;;;;;9.77;4.47;;;;;;;;;;4974171;28;101153;-78
2023/06/10 01:39:50;;;;;;;6.65;4.25;;;;;;;;;;4954012;28;97670;-78
2023/06/10 01:42:17;;;;;;;6.72;4.32;;;;;;;;;;4954831;28;98516;-78
2023/06/10 01:44:44;;;;;;;13.35;5.10;;;;;;;;;;4950789;28;101218;-79
2023/06/10 01:47:10;;;;;;;8.93;4.90;;;;;;;;;;4951387;28;99262;-79
2023/06/10 01:49:37;;;;;;;9.13;4.68;;;;;;;;;;4936153;28;101077;-79
2023/06/10 01:52:04;;;;;;;13.32;4.90;;;;;;;;;;4944451;28;98442;-78
2023/06/10 01:54:34;;;;;;;7.75;4.50;;;;;;;;;;4944179;28;98535;-78
2023/06/10 01:57:01;;;;;;;11.30;4.38;;;;;;;;;;4947574;28;100248;-79
2023/06/10 01:59:28;;;;;;;9.05;4.32;;;;;;;;;;4946636;28;98698;-79
2023/06/10 02:01:54;;;;;;;9.00;4.70;;;;;;;;;;4954773;28;100026;-78
2023/06/10 02:04:21;;;;;;;8.80;4.35;;;;;;;;;;4957817;28;97632;-79
2023/06/10 02:06:48;;;;;;;7.53;4.28;;;;;;;;;;4957471;28;98497;-79
2023/06/10 02:09:14;;;;;;;6.93;3.88;;;;;;;;;;4955593;28;99871;-79
2023/06/10 02:11:41;;;;;;;10.20;4.43;;;;;;;;;;4958908;28;99315;-79
2023/06/10 02:14:07;;;;;;;5.10;4.13;;;;;;;;;;4961242;28;99032;-79
2023/06/10 02:16:34;;;;;;;6.45;3.83;;;;;;;;;;4960092;28;99066;-78
2023/06/10 02:19:02;;;;;;;5.78;4.43;;;;;;;;;;4946217;28;98482;-79
2023/06/10 02:21:29;;;;;;;8.55;5.00;;;;;;;;;;4959137;28;98457;-79
2023/06/10 02:23:55;;;;;;;5.68;4.05;;;;;;;;;;4955011;28;98345;-79
2023/06/10 02:26:22;;;;;;;9.93;4.10;;;;;;;;;;4956603;28;98502;-79
2023/06/10 02:28:49;;;;;;;6.20;4.07;;;;;;;;;;4946049;28;100480;-79
2023/06/10 02:31:17;;;;;;;6.30;4.10;;;;;;;;;;4943566;28;99161;-79
2023/06/10 02:33:44;;;;;;;6.50;4.00;;;;;;;;;;4956284;28;98018;-79
2023/06/10 02:36:15;;;;;;;10.38;4.00;;;;;;;;;;4952335;28;99654;-79
2023/06/10 02:38:42;;;;;;;9.80;4.22;;;;;;;;;;4953344;28;98561;-79
2023/06/10 02:41:09;;;;;;;4.82;4.10;;;;;;;;;;4963375;28;99639;-79
2023/06/10 02:43:36;;;;;;;9.38;5.05;;;;;;;;;;4953385;28;99058;-79
2023/06/10 02:46:03;;;;;;;10.35;4.68;;;;;;;;;;4960434;28;98636;-79
2023/06/10 02:48:31;;;;;;;5.10;3.53;;;;;;;;;;4962945;28;99798;-79
2023/06/10 02:50:57;;;;;;;6.25;3.70;;;;;;;;;;4962606;28;98447;-79
2023/06/10 02:53:37;;;;;;;8.77;3.88;;;;;;;;;;4937665;28;97869;-79
2023/06/10 02:56:08;;;;;;;7.10;4.07;;;;;;;;;;4963073;28;98311;-79
2023/06/10 02:58:35;;;;;;;4.65;3.70;;;;;;;;;;4949177;28;100344;-79
2023/06/10 03:01:02;;;;;;;7.40;4.28;;;;;;;;;;4946684;28;100216;-79
2023/06/10 03:03:42;;;;;;;7.15;4.47;;;;;;;;;;4963476;28;101617;-79
2023/06/10 03:06:12;;;;;;;9.98;4.22;;;;;;;;;;4964602;28;97935;-79
2023/06/10 03:08:40;;;;;;;7.72;4.25;;;;;;;;;;4976515;28;100213;-79
2023/06/10 03:11:11;;;;;;;8.65;4.53;;;;;;;;;;4962385;28;100233;-79
2023/06/10 03:13:39;;;;;;;8.85;4.43;;;;;;;;;;4962148;28;98490;-79
2023/06/10 03:16:08;;;;;;;10.07;4.43;;;;;;;;;;4946041;28;100169;-79
2023/06/10 03:18:37;;;;;;;9.65;4.90;;;;;;;;;;4945848;28;99554;-79
2023/06/10 03:21:04;;;;;;;9.57;4.85;;;;;;;;;;4966113;28;98576;-79
2023/06/10 03:23:31;;;;;;;8.18;4.22;;;;;;;;;;4964377;28;98562;-79
2023/06/10 03:26:00;;;;;;;12.55;4.28;;;;;;;;;;4962383;28;99262;-79
2023/06/10 03:28:28;;;;;;;7.43;4.55;;;;;;;;;;4960323;28;99591;-79
2023/06/10 03:30:56;;;;;;;6.10;4.70;;;;;;;;;;4937746;28;100490;-78
2023/06/10 03:33:26;;;;;;;8.15;4.32;;;;;;;;;;4969208;28;98448;-78
2023/06/10 03:35:52;;;;;;;9.27;5.15;;;;;;;;;;4961611;28;99005;-78
2023/06/10 03:38:19;;;;;;;12.68;4.97;;;;;;;;;;4954477;28;99164;-78
2023/06/10 03:40:47;;;;;;;10.60;4.55;;;;;;;;;;4951864;28;98869;-78
2023/06/10 03:43:13;;;;;;;9.57;4.72;;;;;;;;;;4942705;28;99959;-78
2023/06/10 03:45:41;;;;;;;5.82;4.53;;;;;;;;;;4967512;28;98486;-78
2023/06/10 03:48:09;;;;;;;5.50;4.07;;;;;;;;;;4955693;28;98863;-79
2023/06/10 03:50:43;;;;;;;7.53;4.47;;;;;;;;;;4954256;28;101064;-78
2023/06/10 03:53:09;;;;;;;8.15;4.97;;;;;;;;;;4952551;28;99903;-79
2023/06/10 03:55:38;;;;;;;9.82;5.00;;;;;;;;;;4946447;28;98511;-79
2023/06/10 03:58:05;;;;;;;6.38;4.88;;;;;;;;;;4960787;28;100579;-79
2023/06/10 04:00:41;;;;;;;9.00;4.78;;;;;;;;;;4948584;28;98501;-78
2023/06/10 04:03:09;;;;;;;15.27;4.50;;;;;;;;;;4962495;28;98701;-78
2023/06/10 04:05:41;;;;;;;11.25;4.80;;;;;;;;;;4963608;28;98003;-79
2023/06/10 04:08:08;;;;;;;13.02;5.68;;;;;;;;;;4963248;28;99777;-78
2023/06/10 04:10:35;;;;;;;8.98;4.60;;;;;;;;;;4951194;28;98569;-79
2023/06/10 04:13:02;;;;;;;6.65;4.32;;;;;;;;;;4960790;28;98350;-79
2023/06/10 04:15:37;;;;;;;6.90;4.60;;;;;;;;;;4955035;28;99805;-79
2023/06/10 04:18:08;;;;;;;8.02;4.63;;;;;;;;;;4954483;28;99911;-79
2023/06/10 04:20:35;;;;;;;9.25;4.68;;;;;;;;;;4944834;28;98522;-79
2023/06/10 04:23:02;;;;;;;7.43;4.80;;;;;;;;;;4940807;28;100034;-79
2023/06/10 04:25:30;;;;;;;7.05;4.50;;;;;;;;;;4967954;28;100461;-79
2023/06/10 04:27:57;;;;;;;8.80;4.90;;;;;;;;;;4953587;28;101397;-78
2023/06/10 04:30:24;;;;;;;8.98;4.75;;;;;;;;;;4945044;28;102048;-79
2023/06/10 04:32:52;;;;;;;9.70;5.15;;;;;;;;;;4961609;28;97301;-78
2023/06/10 04:35:18;;;;;;;13.98;5.05;;;;;;;;;;4943062;28;98214;-78
2023/06/10 04:37:47;;;;;;;8.75;4.97;;;;;;;;;;4960202;28;100077;-79
2023/06/10 04:40:15;;;;;;;5.32;4.15;;;;;;;;;;4962467;28;99046;-79
2023/06/10 04:42:42;;;;;;;11.27;4.70;;;;;;;;;;4951470;28;100317;-79
2023/06/10 04:45:09;;;;;;;10.10;4.72;;;;;;;;;;4964240;28;98492;-79
2023/06/10 04:47:37;;;;;;;7.43;4.28;;;;;;;;;;4967777;28;98410;-79
2023/06/10 04:50:05;;;;;;;10.70;5.43;;;;;;;;;;4954287;28;100446;-79
2023/06/10 04:52:33;;;;;;;18.20;5.63;;;;;;;;;;4962267;28;98551;-79
2023/06/10 04:55:00;;;;;;;10.25;5.47;;;;;;;;;;4953444;28;99064;-79
2023/06/10 04:57:26;;;;;;;7.50;5.00;;;;;;;;;;4966362;28;97534;-79
2023/06/10 04:59:53;;;;;;;8.43;4.55;;;;;;;;;;4950740;28;98370;-78
2023/06/10 05:02:20;;;;;;;14.05;5.35;;;;;;;;;;4962073;28;98907;-79
2023/06/10 05:04:46;;;;;;;11.00;5.35;;;;;;;;;;4962818;28;98893;-79
2023/06/10 05:07:13;;;;;;;11.32;4.85;;;;;;;;;;4965944;28;98353;-79
2023/06/10 05:09:39;;;;;;;8.20;5.50;;;;;;;;;;4952050;28;97968;-79
2023/06/10 05:12:06;;;;;;;12.13;5.20;;;;;;;;;;4950689;28;99709;-79
2023/06/10 05:14:33;;;;;;;9.10;4.75;;;;;;;;;;4946417;28;97656;-79
2023/06/10 05:16:59;;;;;;;13.63;5.00;;;;;;;;;;4958166;28;100929;-78
2023/06/10 05:19:27;;;;;;;11.68;6.07;;;;;;;;;;4956382;28;98132;-79
2023/06/10 05:21:53;;;;;;;10.52;5.85;;;;;;;;;;4964325;28;100386;-79
2023/06/10 05:24:20;;;;;;;13.27;6.43;;;;;;;;;;4964027;28;98456;-79
2023/06/10 05:26:48;;;;;;;14.60;5.22;;;;;;;;;;4933634;28;98438;-79
2023/06/10 05:29:15;;;;;;;7.13;5.15;;;;;;;;;;4956385;28;99362;-79
2023/06/10 05:31:42;;;;;;;17.92;6.03;;;;;;;;;;4947527;28;99758;-78
2023/06/10 05:34:08;;;;;;;7.28;5.85;;;;;;;;;;4961615;28;98540;-79
2023/06/10 05:36:35;;;;;;;9.57;5.15;;;;;;;;;;4964310;28;99247;-79
2023/06/10 05:39:01;;;;;;;9.52;5.03;;;;;;;;;;4962164;28;98325;-79
2023/06/10 05:41:28;;;;;;;8.73;5.43;;;;;;;;;;4950206;28;98885;-79
2023/06/10 05:43:55;;;;;;;7.38;5.10;;;;;;;;;;4942842;28;98520;-78
2023/06/10 05:46:21;;;;;;;6.60;4.82;;;;;;;;;;4963759;28;97269;-79
2023/06/10 05:48:48;;;;;;;11.10;5.90;;;;;;;;;;4963445;28;98006;-78
2023/06/10 05:51:14;;;;;;;10.10;5.07;;;;;;;;;;4963043;28;98729;-78
2023/06/10 05:53:41;;;;;;;11.75;5.10;;;;;;;;;;4955114;28;99151;-79
2023/06/10 05:56:07;;;;;;;12.50;5.15;;;;;;;;;;4959435;28;98371;-79
2023/06/10 05:58:34;;;;;;;10.70;5.55;;;;;;;;;;4964720;28;98162;-78
2023/06/10 06:01:00;;;;;;;7.82;5.75;;;;;;;;;;4944624;28;98204;-78
2023/06/10 06:03:28;;;;;;;13.55;5.95;;;;;;;;;;4944907;28;100457;-79
2023/06/10 06:05:55;;;;;;;25.48;5.72;;;;;;;;;;4960620;28;98427;-79
2023/06/10 06:08:22;;;;;;;18.60;6.00;;;;;;;;;;4945446;28;99968;-79
2023/06/10 06:10:48;;;;;;;12.13;5.65;;;;;;;;;;4956517;28;97752;-79
2023/06/10 06:13:15;;;;;;;8.38;5.68;;;;;;;;;;4966504;28;98578;-79
2023/06/10 06:15:41;;;;;;;6.32;4.50;;;;;;;;;;4963451;28;101519;-79
2023/06/10 06:18:08;;;;;;;12.73;5.15;;;;;;;;;;4963341;28;98700;-78
2023/06/10 06:20:35;;;;;;;8.10;4.70;;;;;;;;;;4965643;28;98521;-79
2023/06/10 06:23:01;;;;;;;8.65;5.00;;;;;;;;;;4958842;28;97979;-79
2023/06/10 06:25:30;;;;;;;18.10;5.97;;;;;;;;;;4944990;28;98544;-79
2023/06/10 06:27:56;;;;;;;13.25;5.22;;;;;;;;;;4953293;28;99325;-79
2023/06/10 06:30:23;;;;;;;11.75;5.30;;;;;;;;;;4949933;28;98590;-79
2023/06/10 06:32:51;;;;;;;13.32;5.25;;;;;;;;;;4962680;28;98047;-78
2023/06/10 06:35:18;;;;;;;13.10;5.47;;;;;;;;;;4941048;28;101334;-78
2023/06/10 06:37:45;;;;;;;10.88;5.28;;;;;;;;;;4939106;28;98465;-78
2023/06/10 06:40:19;;;;;;;7.50;5.43;;;;;;;;;;4937386;28;101948;-78
2023/06/10 06:42:46;;;;;;;9.32;4.63;;;;;;;;;;4960105;28;100147;-79
2023/06/10 06:45:21;;;;;;;11.52;4.97;;;;;;;;;;4963394;28;98412;-79
2023/06/10 06:47:48;;;;;;;11.82;5.35;;;;;;;;;;4961860;28;98549;-79
2023/06/10 06:50:15;;;;;;;10.10;5.47;;;;;;;;;;4962218;28;98295;-79
2023/06/10 06:52:41;;;;;;;11.73;5.55;;;;;;;;;;4961119;28;97911;-79
2023/06/10 06:55:08;;;;;;;10.60;4.80;;;;;;;;;;4952078;28;101307;-79
2023/06/10 06:57:36;;;;;;;10.75;5.15;;;;;;;;;;4962034;28;99076;-79
2023/06/10 07:00:03;;;;;;;12.50;4.97;;;;;;;;;;4962251;28;97813;-80
2023/06/10 07:02:31;;;;;;;11.90;5.22;;;;;;;;;;4960484;28;98139;-79
2023/06/10 07:04:58;;;;;;;8.77;4.55;;;;;;;;;;4932648;28;98488;-80
2023/06/10 07:07:25;;;;;;;10.18;4.88;;;;;;;;;;4948217;28;101216;-79
2023/06/10 07:09:52;;;;;;;11.27;4.47;;;;;;;;;;4954088;28;99618;-79
2023/06/10 07:12:18;;;;;;;15.57;5.32;;;;;;;;;;4952009;28;98479;-80
2023/06/10 07:14:45;;;;;;;6.65;4.70;;;;;;;;;;4960474;28;99592;-80
2023/06/10 07:17:11;;;;;;;12.18;5.95;;;;;;;;;;4971175;28;98261;-79
2023/06/10 07:19:38;;;;;;;9.15;4.60;;;;;;;;;;4967226;28;98485;-79
2023/06/10 07:22:05;;;;;;;7.93;5.10;;;;;;;;;;4940454;28;98663;-78
2023/06/10 07:24:32;;;;;;;13.45;5.25;;;;;;;;;;4957769;28;97929;-78
2023/06/10 07:26:58;;;;;;;7.07;4.53;;;;;;;;;;4943824;28;98493;-78
2023/06/10 07:29:24;;;;;;;13.82;5.78;;;;;;;;;;4955690;28;100438;-78
2023/06/10 07:31:51;;;;;;;24.80;4.78;;;;;;;;;;4951622;28;99251;-79
2023/06/10 07:34:17;;;;;;;7.03;4.05;;;;;;;;;;4955683;28;98394;-79
2023/06/10 07:36:44;;;;;;;10.43;5.00;;;;;;;;;;4943775;28;100387;-79
2023/06/10 07:39:10;;;;;;;8.50;5.20;;;;;;;;;;4942664;28;98545;-78
2023/06/10 07:41:37;;;;;;;9.32;4.63;;;;;;;;;;4963591;28;99452;-78
2023/06/10 07:44:04;;;;;;;9.75;4.90;;;;;;;;;;4955959;28;98417;-78
2023/06/10 07:46:30;;;;;;;11.10;4.30;;;;;;;;;;4956451;28;98443;-79
2023/06/10 07:48:57;;;;;;;8.98;5.13;;;;;;;;;;4957343;28;98296;-78
2023/06/10 07:51:23;;;;;;;6.97;4.20;;;;;;;;;;4949896;28;98330;-79
2023/06/10 07:53:50;;;;;;;5.85;4.55;;;;;;;;;;4936930;28;99577;-78
2023/06/10 07:56:16;;;;;;;10.25;4.63;;;;;;;;;;4936981;28;100002;-79
2023/06/10 07:58:43;;;;;;;9.25;5.07;;;;;;;;;;4936889;28;98175;-78
2023/06/10 08:01:09;;;;;;;10.82;4.47;;;;;;;;;;4966454;28;98192;-78
2023/06/10 08:03:36;;;;;;;10.73;4.53;;;;;;;;;;4940169;28;99331;-78
2023/06/10 08:06:03;;;;;;;9.82;5.28;;;;;;;;;;4941243;28;98230;-78
2023/06/10 08:08:29;;;;;;;13.57;4.97;;;;;;;;;;4961591;28;98194;-79
2023/06/10 08:10:56;;;;;;;13.15;5.20;;;;;;;;;;4961710;28;98202;-79
2023/06/10 08:13:22;;;;;;;6.78;4.40;;;;;;;;;;4945460;28;99807;-79
2023/06/10 08:15:50;;;;;;;11.82;4.43;;;;;;;;;;4952924;28;99165;-78
2023/06/10 08:18:17;;;;;;;13.18;5.50;;;;;;;;;;4946244;28;98628;-79
2023/06/10 08:20:43;;;;;;;12.05;4.95;;;;;;;;;;4948946;28;101483;-78
2023/06/10 08:23:10;;;;;;;11.82;4.43;;;;;;;;;;4964904;28;99855;-78
2023/06/10 08:25:36;;;;;;;21.83;4.93;;;;;;;;;;4941737;28;98513;-78
2023/06/10 08:28:03;;;;;;;11.13;4.82;;;;;;;;;;4948752;28;98190;-77
2023/06/10 08:30:30;;;;;;;12.02;4.32;;;;;;;;;;4952400;28;98290;-78
2023/06/10 08:32:56;;;;;;;14.98;5.18;;;;;;;;;;4947537;28;98914;-78
2023/06/10 08:35:23;;;;;;;16.42;5.13;;;;;;;;;;4953814;28;98181;-78
2023/06/10 08:37:50;;;;;;;5.82;4.10;;;;;;;;;;4959570;28;97381;-79
2023/06/10 08:40:16;;;;;;;14.02;4.65;;;;;;;;;;4945002;28;98439;-79
2023/06/10 08:42:45;;;;;;;8.93;3.92;;;;;;;;;;4948556;28;99929;-79
2023/06/10 08:45:16;;;;;;;14.70;4.90;;;;;;;;;;4963677;28;99354;-78
2023/06/10 08:47:44;;;;;;;5.50;4.40;;;;;;;;;;4949170;28;98175;-79
2023/06/10 08:50:11;;;;;;;8.32;4.07;;;;;;;;;;4943780;28;98182;-78
2023/06/10 08:52:42;;;;;;;10.60;4.63;;;;;;;;;;4960265;28;99881;-78
2023/06/10 08:55:17;;;;;;;15.48;4.28;;;;;;;;;;4949976;28;98083;-78
2023/06/10 08:57:45;;;;;;;7.50;4.25;;;;;;;;;;4943101;28;98517;-79
2023/06/10 09:00:12;;;;;;;8.50;4.03;;;;;;;;;;4959008;28;98562;-79
2023/06/10 09:02:39;;;;;;;7.03;4.00;;;;;;;;;;4957768;28;99394;-79
2023/06/10 09:05:06;;;;;;;10.25;4.30;;;;;;;;;;4954724;28;97965;-79
2023/06/10 09:07:35;;;;;;;11.38;4.35;;;;;;;;;;4955411;28;97760;-79
2023/06/10 09:10:03;;;;;;;6.57;4.03;;;;;;;;;;4954314;28;99079;-79
2023/06/10 09:12:30;;;;;;;5.38;4.05;;;;;;;;;;4958913;28;99174;-79
2023/06/10 09:14:56;;;;;;;6.47;4.13;;;;;;;;;;4957515;28;98600;-78
2023/06/10 09:17:24;;;;;;;9.82;3.90;;;;;;;;;;4957509;28;98438;-79
2023/06/10 09:19:53;;;;;;;10.18;3.63;;;;;;;;;;4954864;28;98283;-79
2023/06/10 09:22:20;;;;;;;7.28;3.65;;;;;;;;;;4956856;28;98360;-78
2023/06/10 09:24:47;;;;;;;5.72;3.83;;;;;;;;;;4956303;28;99219;-78
2023/06/10 09:27:14;;;;;;;8.45;3.63;;;;;;;;;;4944343;28;97826;-79
2023/06/10 09:29:47;;;;;;;12.65;4.22;;;;;;;;;;4950431;28;98411;-79
2023/06/10 09:32:15;;;;;;;14.57;3.88;;;;;;;;;;4953910;28;98573;-79
2023/06/10 09:34:41;;;;;;;8.00;3.90;;;;;;;;;;4957243;28;101441;-83
2023/06/10 09:37:11;;;;;;;3.78;3.42;;;;;;;;;;4957126;28;98539;-79
2023/06/10 09:39:38;;;;;;;16.80;3.90;;;;;;;;;;4939548;28;100068;-79
2023/06/10 09:42:18;;;;;;;6.60;4.22;;;;;;;;;;4957325;28;98617;-80
2023/06/10 09:44:51;;;;;;;15.38;4.47;;;;;;;;;;4937376;28;98585;-80
2023/06/10 09:47:22;;;;;;;11.25;3.72;;;;;;;;;;4938766;28;98576;-79
2023/06/10 09:49:50;;;;;;;10.95;3.88;;;;;;;;;;4949473;28;98630;-79
2023/06/10 09:52:23;;;;;;;9.43;3.45;;;;;;;;;;4937586;28;97763;-80
2023/06/10 09:54:53;;;;;;;5.30;3.72;;;;;;;;;;4945356;28;102526;-80
2023/06/10 09:57:21;;;;;;;8.98;3.30;;;;;;;;;;4962682;28;98468;-80
2023/06/10 09:59:47;;;;;;;7.55;3.80;;;;;;;;;;4947556;28;99170;-81
2023/06/10 10:02:17;;;;;;;4.47;3.13;;;;;;;;;;4950074;28;100031;-80
2023/06/10 10:04:44;;;;;;;5.13;3.80;;;;;;;;;;4961255;28;98097;-80
2023/06/10 10:07:11;;;;;;;15.25;3.90;;;;;;;;;;4961997;28;98392;-80
2023/06/10 10:09:38;;;;;;;6.57;3.08;;;;;;;;;;4959890;28;97958;-80
2023/06/10 10:12:15;;;;;;;6.97;3.28;;;;;;;;;;4943138;28;98602;-81
2023/06/10 10:14:45;;;;;;;8.48;3.38;;;;;;;;;;4942778;28;100481;-80
2023/06/10 10:17:14;;;;;;;9.07;3.53;;;;;;;;;;4973371;28;97332;-80
2023/06/10 10:19:48;;;;;;;6.85;3.45;;;;;;;;;;4964663;28;98634;-79
2023/06/10 10:22:18;;;;;;;11.32;3.15;;;;;;;;;;4942027;28;100845;-80
2023/06/10 10:24:56;;;;;;;3.75;3.35;;;;;;;;;;4968415;28;98606;-80
2023/06/10 10:27:41;;;;;;;6.80;3.00;;;;;;;;;;4943178;28;99545;-80
2023/06/10 10:30:10;;;;;;;6.28;3.30;;;;;;;;;;4943486;28;98406;-80
2023/06/10 10:32:43;;;;;;;10.50;3.20;;;;;;;;;;4937945;28;98204;-80
2023/06/10 10:35:15;;;;;;;13.80;3.50;;;;;;;;;;4956704;28;99529;-80
2023/06/10 10:37:42;;;;;;;6.75;3.28;;;;;;;;;;4945194;28;98356;-81
2023/06/10 10:40:09;;;;;;;7.20;3.08;;;;;;;;;;4960085;28;98372;-80
2023/06/10 10:42:37;;;;;;;8.50;3.97;;;;;;;;;;4942602;28;99049;-80
2023/06/10 10:45:04;;;;;;;3.95;2.92;;;;;;;;;;4957844;28;98412;-81
2023/06/10 10:47:35;;;;;;;4.93;3.33;;;;;;;;;;4960132;28;98372;-82
2023/06/10 10:50:12;;;;;;;9.00;3.17;;;;;;;;;;4957544;28;99195;-81
2023/06/10 10:52:51;;;;;;;6.75;3.40;;;;;;;;;;4955853;28;98528;-81
2023/06/10 10:55:18;;;;;;;6.53;3.20;;;;;;;;;;4939143;28;98956;-81
2023/06/10 10:57:45;;;;;;;4.43;2.78;;;;;;;;;;4958194;28;99160;-81
2023/06/10 11:00:11;;;;;;;5.60;3.20;;;;;;;;;;4957846;28;98434;-81
2023/06/10 11:02:45;;;;;;;10.73;3.70;;;;;;;;;;4957958;28;98457;-80
2023/06/10 11:05:16;;;;;;;3.75;3.30;;;;;;;;;;4949698;28;98584;-80
2023/06/10 11:07:55;;;;;;;5.17;2.90;;;;;;;;;;4928778;28;100625;-81
2023/06/10 11:10:37;;;;;;;12.00;3.65;;;;;;;;;;4957364;28;102500;-81
2023/06/10 11:13:14;;;;;;;5.75;3.40;;;;;;;;;;4956697;28;99485;-80
2023/06/10 11:15:44;;;;;;;7.57;3.85;;;;;;;;;;4945393;28;100245;-80
2023/06/10 11:18:23;;;;;;;4.18;3.08;;;;;;;;;;4955024;28;98505;-80
2023/06/10 11:20:49;;;;;;;3.72;3.00;;;;;;;;;;4944444;28;98468;-81
2023/06/10 11:23:26;;;;;;;4.88;3.55;;;;;;;;;;4953757;28;97913;-81
2023/06/10 11:26:11;;;;;;;3.83;3.22;;;;;;;;;;4940454;28;97737;-81
2023/06/10 11:28:38;;;;;;;3.67;3.00;;;;;;;;;;4940733;28;98392;-80
2023/06/10 11:31:05;;;;;;;6.22;3.35;;;;;;;;;;4952482;28;100021;-80
2023/06/10 11:33:32;;;;;;;6.22;3.65;;;;;;;;;;4953669;28;97480;-80
2023/06/10 11:35:59;;;;;;;3.28;2.97;;;;;;;;;;4954153;28;98486;-80
2023/06/10 11:38:26;;;;;;;5.97;3.28;;;;;;;;;;4939276;28;99311;-81
2023/06/10 11:40:52;;;;;;;6.07;3.25;;;;;;;;;;4952288;28;98881;-80
2023/06/10 11:43:19;;;;;;;8.13;3.38;;;;;;;;;;4945013;28;98487;-80
2023/06/10 11:45:46;;;;;;;4.30;3.17;;;;;;;;;;4944391;28;98446;-81
2023/06/10 11:48:12;;;;;;;8.48;3.30;;;;;;;;;;4961422;28;98527;-81
2023/06/10 11:50:41;;;;;;;5.70;3.58;;;;;;;;;;4951857;28;98303;-81
2023/06/10 11:53:08;;;;;;;6.95;2.95;;;;;;;;;;4962708;28;98449;-80
2023/06/10 11:55:40;;;;;;;3.45;3.03;;;;;;;;;;4951243;28;100835;-80
2023/06/10 11:58:36;;;;;;;6.13;3.50;;;;;;;;;;4948375;28;97698;-80
2023/06/10 12:01:03;;;;;;;5.50;2.65;;;;;;;;;;4934237;28;98485;-81
2023/06/10 12:03:37;;;;;;;6.00;2.92;;;;;;;;;;4942382;28;98369;-80
2023/06/10 12:06:05;;;;;;;3.78;3.47;;;;;;;;;;4942133;28;100909;-81
2023/06/10 12:08:41;;;;;;;8.32;3.30;;;;;;;;;;4942959;28;100301;-81
2023/06/10 12:11:07;;;;;;;8.45;3.63;;;;;;;;;;4939186;28;98762;-80
2023/06/10 12:13:34;;;;;;;9.27;3.97;;;;;;;;;;4918519;28;98014;-80
2023/06/10 12:16:07;;;;;;;10.23;3.55;;;;;;;;;;4927288;28;98533;-81
2023/06/10 12:18:34;;;;;;;10.25;3.30;;;;;;;;;;4930984;28;99483;-80
2023/06/10 12:21:01;;;;;;;5.60;3.00;;;;;;;;;;4928405;28;98625;-81
2023/06/10 12:23:27;;;;;;;7.90;3.10;;;;;;;;;;4925241;28;98773;-81
2023/06/10 12:25:54;;;;;;;4.93;3.60;;;;;;;;;;4924168;28;98512;-80
2023/06/10 12:28:22;;;;;;;3.40;3.10;;;;;;;;;;4937976;28;98500;-81
2023/06/10 12:30:48;;;;;;;5.20;3.42;;;;;;;;;;4939953;28;98881;-81
2023/06/10 12:33:15;;;;;;;4.53;3.13;;;;;;;;;;4940761;28;98586;-80
2023/06/10 12:35:47;;;;;;;7.40;3.70;;;;;;;;;;4936344;28;98418;-81
2023/06/10 12:38:13;;;;;;;8.77;3.70;;;;;;;;;;4930598;28;99241;-81
2023/06/10 12:40:41;;;;;;;4.82;3.13;;;;;;;;;;4937898;28;98462;-80
2023/06/10 12:43:07;;;;;;;3.58;2.90;;;;;;;;;;4939968;28;98674;-80
2023/06/10 12:45:35;;;;;;;5.32;3.58;;;;;;;;;;4923814;28;98236;-80
2023/06/10 12:48:06;;;;;;;4.53;3.00;;;;;;;;;;4938771;28;97877;-81
2023/06/10 12:50:33;;;;;;;9.73;3.30;;;;;;;;;;4936878;28;98202;-80
2023/06/10 12:53:02;;;;;;;4.72;3.30;;;;;;;;;;4923123;28;98491;-81
2023/06/10 12:55:32;;;;;;;9.43;3.40;;;;;;;;;;4936021;28;99095;-81
2023/06/10 12:58:00;;;;;;;7.47;3.50;;;;;;;;;;4936905;28;98193;-80
2023/06/10 13:00:29;;;;;;;3.67;2.92;;;;;;;;;;4941296;28;98380;-82
2023/06/10 13:02:56;;;;;;;7.93;3.45;;;;;;;;;;4949173;28;98283;-81
2023/06/10 13:05:23;;;;;;;5.90;3.42;;;;;;;;;;4936704;28;100240;-81
2023/06/10 13:07:50;;;;;;;6.03;3.15;;;;;;;;;;4951868;28;98520;-81
2023/06/10 13:10:16;;;;;;;7.45;3.40;;;;;;;;;;4961309;28;98449;-81
2023/06/10 13:12:43;;;;;;;9.75;3.08;;;;;;;;;;4944448;28;97605;-81
2023/06/10 13:15:14;;;;;;;9.90;3.13;;;;;;;;;;4954838;28;99122;-81
2023/06/10 13:17:42;;;;;;;4.82;3.28;;;;;;;;;;4951737;28;98175;-81
2023/06/10 13:20:08;;;;;;;6.50;3.63;;;;;;;;;;4942154;28;99733;-81
2023/06/10 13:22:36;;;;;;;8.43;3.10;;;;;;;;;;4947643;28;98313;-80
2023/06/10 13:25:03;;;;;;;3.13;2.83;;;;;;;;;;4938059;28;98567;-80
2023/06/10 13:27:30;;;;;;;9.13;3.47;;;;;;;;;;4938032;28;98534;-82
2023/06/10 13:29:57;;;;;;;5.78;2.90;;;;;;;;;;4939983;28;99312;-81
2023/06/10 13:32:23;;;;;;;9.43;2.85;;;;;;;;;;4958494;28;98488;-81
2023/06/10 13:34:50;;;;;;;5.00;3.08;;;;;;;;;;4952853;28;100600;-82
2023/06/10 13:37:19;;;;;;;3.47;2.60;;;;;;;;;;4955428;28;97738;-81
2023/06/10 13:39:48;;;;;;;4.95;3.22;;;;;;;;;;4949986;28;98191;-81
2023/06/10 13:42:15;;;;;;;5.40;2.83;;;;;;;;;;4950908;28;98815;-81
2023/06/10 13:44:41;;;;;;;2.80;2.60;;;;;;;;;;4955102;28;99351;-81
2023/06/10 13:47:08;;;;;;;6.82;2.63;;;;;;;;;;4956633;28;98557;-81
2023/06/10 13:49:35;;;;;;;3.45;2.80;;;;;;;;;;4957839;28;98453;-81
2023/06/10 13:52:02;;;;;;;3.95;2.15;;;;;;;;;;4955922;28;99336;-81
2023/06/10 13:54:29;;;;;;;10.00;3.78;;;;;;;;;;4970367;28;98544;-82
2023/06/10 13:56:55;;;;;;;5.88;2.60;;;;;;;;;;4956437;28;98562;-82
2023/06/10 13:59:22;;;;;;;4.90;2.33;;;;;;;;;;4956395;28;99818;-82
2023/06/10 14:01:48;;;;;;;6.35;2.70;;;;;;;;;;4955839;28;97813;-79
2023/06/10 14:04:15;;;;;;;2.63;2.33;;;;;;;;;;4955482;28;98131;-81
2023/06/10 14:06:42;;;;;;;10.27;2.42;;;;;;;;;;4955621;28;98486;-81
2023/06/10 14:09:09;;;;;;;7.47;3.10;;;;;;;;;;4956499;28;99272;-80
2023/06/10 14:11:35;;;;;;;4.78;2.80;;;;;;;;;;4956130;28;99386;-80
2023/06/10 14:14:02;;;;;;;6.40;2.80;;;;;;;;;;4957083;28;100266;-80
2023/06/10 14:16:29;;;;;;;7.28;2.97;;;;;;;;;;4959449;28;98870;-80
2023/06/10 14:18:55;;;;;;;3.22;2.67;;;;;;;;;;4949274;28;97983;-81
2023/06/10 14:21:22;;;;;;;2.80;2.40;;;;;;;;;;4939361;28;101078;-80
2023/06/10 14:23:50;;;;;;;10.25;2.60;;;;;;;;;;4936963;28;98396;-81
2023/06/10 14:26:16;;;;;;;10.32;2.70;;;;;;;;;;4942527;28;97682;-81
2023/06/10 14:28:43;;;;;;;9.55;2.60;;;;;;;;;;4931459;28;99540;-80
2023/06/10 14:31:09;;;;;;;5.63;2.60;;;;;;;;;;4951132;28;98043;-81
2023/06/10 14:33:36;;;;;;;2.70;2.10;;;;;;;;;;4960832;28;98721;-79
2023/06/10 14:36:03;;;;;;;3.50;2.35;;;;;;;;;;4969410;28;99796;-80
2023/06/10 14:38:29;;;;;;;7.40;2.60;;;;;;;;;;4964310;28;98167;-80
2023/06/10 14:40:56;;;;;;;6.95;2.30;;;;;;;;;;4957261;28;98032;-80